Minerva Virgo — SXXT — position and weather

sailwx.info

Track history (hours):
 
Tides and Currents Weather Stations Pressure Air Temp Water Temp Dewpoint Dewpoint Depression Visibility Wind Speed Wind Dir Waves Ship Positions

Minerva Virgo

Last reported at 2017-Feb-08 02:18 UTC. Time now 2017-Feb-23 02:36 UTC.
Position N 40°24' W 073°28'.
Warning: this ship's position is 15 days out of date.

Length 182 m; draft 8.5 m.

Type: Ship (hazmat cat C). MMSI: 240730000.

Date/timePositionNaut miles runAvg speedWind from/ knotsBaromVisibWave heightAir tempDewpointWater temp
2017-Feb-08 02:18N 40°24' W 073°28'1316.5
2017-Feb-08 01:31N 40°26' W 073°44'9 9.5
2017-Feb-08 00:33N 40°29' W 073°55'1110.7
2017-Feb-07 23:33N 40°38' W 074°04'0 0.4
2017-Feb-07 22:32N 40°38' W 074°04'0 0.0
2017-Feb-07 21:32N 40°38' W 074°04'0 0.1
2017-Feb-07 20:32N 40°38' W 074°04'0 0.1
2017-Feb-07 19:32N 40°38' W 074°04'0 0.1
2017-Feb-07 18:32N 40°38' W 074°04'0 0.0
2017-Feb-07 17:32N 40°38' W 074°04'0 0.0
2017-Feb-07 16:32N 40°38' W 074°04'0 0.0
2017-Feb-07 15:32N 40°38' W 074°04'0 0.0
2017-Feb-07 14:32N 40°38' W 074°04'0 0.0
2017-Feb-07 13:32N 40°38' W 074°04'2 2.2
2017-Feb-07 12:33N 40°36' W 074°03'1010.0
2017-Feb-07 11:33N 40°29' W 073°54'7 7.4
2017-Feb-07 10:33N 40°27' W 073°44'5 4.2
2017-Feb-07 09:20N 40°29' W 073°38'0 0.0
2017-Feb-07 06:23N 40°29' W 073°38'0 0.0
2017-Feb-07 03:17N 40°29' W 073°38'0 0.0
2017-Feb-07 02:29N 40°29' W 073°38'0 0.0
2017-Feb-06 17:23N 40°29' W 073°38'0 0.0
2017-Feb-06 16:29N 40°29' W 073°38'0 0.0
2017-Feb-06 07:05N 40°29' W 073°38'0 0.0
2017-Feb-06 06:29N 40°29' W 073°38'0 0.0
2017-Feb-06 05:26N 40°29' W 073°38'0 0.0
2017-Feb-06 01:05N 40°29' W 073°38'0 0.0
2017-Feb-06 00:29N 40°29' W 073°38'0 0.0
2017-Feb-05 23:32N 40°29' W 073°38'0 0.0
2017-Feb-05 22:23N 40°29' W 073°38'0 0.0
2017-Feb-05 21:32N 40°29' W 073°38'0 0.0
2017-Feb-05 20:32N 40°29' W 073°38'0 0.0
2017-Feb-05 19:32N 40°29' W 073°38'0 0.0
2017-Feb-05 16:29N 40°29' W 073°38'0 0.0
2017-Feb-05 15:32N 40°29' W 073°38'0 0.0
2017-Feb-04 23:26N 40°29' W 073°38'0 0.0
2017-Feb-04 22:17N 40°29' W 073°38'0 0.0
2017-Feb-04 20:29N 40°29' W 073°38'0 0.0
2017-Feb-04 18:23N 40°29' W 073°38'0 0.0
2017-Feb-04 17:32N 40°29' W 073°38'0 0.0
2017-Feb-04 14:08N 40°29' W 073°38'0 0.0
2017-Feb-04 02:17N 40°29' W 073°38'0 0.0
2017-Feb-04 01:20N 40°29' W 073°38'0 0.0
2017-Feb-03 20:23N 40°29' W 073°38'0 0.0
2017-Feb-03 18:29N 40°29' W 073°38'0 0.0
2017-Feb-03 15:17N 40°29' W 073°38'0 0.0
2017-Feb-03 10:23N 40°29' W 073°38'0 0.0
2017-Feb-03 07:11N 40°29' W 073°38'1 1.0
2017-Feb-03 06:33N 40°29' W 073°37'87 6.1
2017-Feb-02 16:15N 41°14' W 071°59'811.3
2017-Feb-02 15:33N 41°14' W 072°10'1212.0
2017-Feb-02 14:33N 41°09' W 072°25'14 0.4
2017-Feb-01 00:27N 41°00' W 072°39'2 2.1
2017-Jan-31 23:31N 41°02' W 072°39'1010.1
2017-Jan-31 22:33N 41°08' W 072°29'1010.0
2017-Jan-31 21:32N 41°11' W 072°16'10 9.7
2017-Jan-31 20:33N 41°14' W 072°04'  
Track history (hours):
 
Tides and Currents Weather Stations Pressure Air Temp Water Temp Dewpoint Dewpoint Depression Visibility Wind Speed Wind Dir Waves Ship Positions

Minerva Virgo

Last reported at 2017-Feb-08 02:18 UTC. Time now 2017-Feb-23 02:36 UTC.
Position N 40°24' W 073°28'.
Warning: this ship's position is 15 days out of date.

Length 182 m; draft 8.5 m.

Type: Ship (hazmat cat C). MMSI: 240730000.

Date/timePositionNaut miles runAvg speedWind from/ knotsBaromVisibWave heightAir tempDewpointWater temp
2017-Feb-08 02:18N 40°24' W 073°28'1316.5
2017-Feb-08 01:31N 40°26' W 073°44'9 9.5
2017-Feb-08 00:33N 40°29' W 073°55'1110.7
2017-Feb-07 23:33N 40°38' W 074°04'0 0.4
2017-Feb-07 22:32N 40°38' W 074°04'0 0.0
2017-Feb-07 21:32N 40°38' W 074°04'0 0.1
2017-Feb-07 20:32N 40°38' W 074°04'0 0.1
2017-Feb-07 19:32N 40°38' W 074°04'0 0.1
2017-Feb-07 18:32N 40°38' W 074°04'0 0.0
2017-Feb-07 17:32N 40°38' W 074°04'0 0.0
2017-Feb-07 16:32N 40°38' W 074°04'0 0.0
2017-Feb-07 15:32N 40°38' W 074°04'0 0.0
2017-Feb-07 14:32N 40°38' W 074°04'0 0.0
2017-Feb-07 13:32N 40°38' W 074°04'2 2.2
2017-Feb-07 12:33N 40°36' W 074°03'1010.0
2017-Feb-07 11:33N 40°29' W 073°54'7 7.4
2017-Feb-07 10:33N 40°27' W 073°44'5 4.2
2017-Feb-07 09:20N 40°29' W 073°38'0 0.0
2017-Feb-07 06:23N 40°29' W 073°38'0 0.0
2017-Feb-07 03:17N 40°29' W 073°38'0 0.0
2017-Feb-07 02:29N 40°29' W 073°38'0 0.0
2017-Feb-06 17:23N 40°29' W 073°38'0 0.0
2017-Feb-06 16:29N 40°29' W 073°38'0 0.0
2017-Feb-06 07:05N 40°29' W 073°38'0 0.0
2017-Feb-06 06:29N 40°29' W 073°38'0 0.0
2017-Feb-06 05:26N 40°29' W 073°38'0 0.0
2017-Feb-06 01:05N 40°29' W 073°38'0 0.0
2017-Feb-06 00:29N 40°29' W 073°38'0 0.0
2017-Feb-05 23:32N 40°29' W 073°38'0 0.0
2017-Feb-05 22:23N 40°29' W 073°38'0 0.0
2017-Feb-05 21:32N 40°29' W 073°38'0 0.0
2017-Feb-05 20:32N 40°29' W 073°38'0 0.0
2017-Feb-05 19:32N 40°29' W 073°38'0 0.0
2017-Feb-05 16:29N 40°29' W 073°38'0 0.0
2017-Feb-05 15:32N 40°29' W 073°38'0 0.0
2017-Feb-04 23:26N 40°29' W 073°38'0 0.0
2017-Feb-04 22:17N 40°29' W 073°38'0 0.0
2017-Feb-04 20:29N 40°29' W 073°38'0 0.0
2017-Feb-04 18:23N 40°29' W 073°38'0 0.0
2017-Feb-04 17:32N 40°29' W 073°38'0 0.0
2017-Feb-04 14:08N 40°29' W 073°38'0 0.0
2017-Feb-04 02:17N 40°29' W 073°38'0 0.0
2017-Feb-04 01:20N 40°29' W 073°38'0 0.0
2017-Feb-03 20:23N 40°29' W 073°38'0 0.0
2017-Feb-03 18:29N 40°29' W 073°38'0 0.0
2017-Feb-03 15:17N 40°29' W 073°38'0 0.0
2017-Feb-03 10:23N 40°29' W 073°38'0 0.0
2017-Feb-03 07:11N 40°29' W 073°38'1 1.0
2017-Feb-03 06:33N 40°29' W 073°37'87 6.1
2017-Feb-02 16:15N 41°14' W 071°59'811.3
2017-Feb-02 15:33N 41°14' W 072°10'1212.0
2017-Feb-02 14:33N 41°09' W 072°25'14 0.4
2017-Feb-01 00:27N 41°00' W 072°39'2 2.1
2017-Jan-31 23:31N 41°02' W 072°39'1010.1
2017-Jan-31 22:33N 41°08' W 072°29'1010.0
2017-Jan-31 21:32N 41°11' W 072°16'10 9.7
2017-Jan-31 20:33N 41°14' W 072°04'  

Dump ship's entire track history